ULOO

Details ICAO ULOO (PKV)
Name PSKOV
Region Russia
Timezone Europe/Moscow (UTC+3.0)
Plans Departing 13
Arriving 24
Stats Elevation 154 ft / 47 m (AMSL)
Location 57.783872° 28.396468°
Runways 2
Magnetic Variation 9.331° E
Sunrise 2017-12-13 06:43:52 UTC / 2017-12-13 09:43:52 Local
Sunset 2017-12-13 13:20:08 UTC / 2017-12-13 16:20:08 Local
Advertisement - Login to hide

Runways

ID Width Length Bearing (true) Bearing (mag) Surface Threshold Offset Overrun Length
01 144 ft / 44 m 6,551 ft / 1,997 m 17.98° 8.65° Concrete 0 ft / 0 m 885 ft / 270 m
01R 144 ft / 44 m 5,656 ft / 1,724 m 18.38° 9.05° Dirt 0 ft / 0 m 0 ft / 0 m
19 144 ft / 44 m 6,551 ft / 1,997 m 197.99° 188.66° Concrete 0 ft / 0 m 150 ft / 46 m
19L 144 ft / 44 m 5,656 ft / 1,724 m 198.38° 189.05° Dirt 0 ft / 0 m 0 ft / 0 m

Map

Weather


0- 5 10 15 20 25 30 35+ Temperature / ° C

Clouds and Precipitation
Forecast for 2017-12-13 18:00 UTC. Updated 9 minutes ago

Ground ~20,000 ft ~40,000 ft Winds

METAR

ULOO 131700Z AUTO 18004MPS 8000 // ///021/// 01/M02 Q1007 RMK QFE751

TAF

Not found

Frequencies

Tower 122.00 MHz TWR
Warning: Do not use this data for real-world aviation or navigation. No guarantee of current accuracy is given.